sensor_id;sensor_type;location;lat;lon;timestamp;P1;durP1;ratioP1;P2;durP2;ratioP2
63965;SDS011;50151;52.030;5.350;2024-02-26T00:02:07;8.10;;;3.28;;
63965;SDS011;50151;52.030;5.350;2024-02-26T00:04:34;5.00;;;3.13;;
63965;SDS011;50151;52.030;5.350;2024-02-26T00:07:00;7.03;;;3.30;;
63965;SDS011;50151;52.030;5.350;2024-02-26T00:09:27;5.18;;;3.40;;
63965;SDS011;50151;52.030;5.350;2024-02-26T00:11:54;5.68;;;3.20;;
63965;SDS011;50151;52.030;5.350;2024-02-26T00:14:21;6.45;;;3.17;;
63965;SDS011;50151;52.030;5.350;2024-02-26T00:16:48;4.25;;;3.03;;
63965;SDS011;50151;52.030;5.350;2024-02-26T00:19:15;6.88;;;3.50;;
63965;SDS011;50151;52.030;5.350;2024-02-26T00:21:42;5.82;;;2.97;;
63965;SDS011;50151;52.030;5.350;2024-02-26T00:24:08;5.25;;;3.38;;
63965;SDS011;50151;52.030;5.350;2024-02-26T00:26:35;4.28;;;3.25;;
63965;SDS011;50151;52.030;5.350;2024-02-26T00:29:02;4.25;;;2.95;;
63965;SDS011;50151;52.030;5.350;2024-02-26T00:31:29;4.80;;;3.28;;
63965;SDS011;50151;52.030;5.350;2024-02-26T00:33:56;3.70;;;3.20;;
63965;SDS011;50151;52.030;5.350;2024-02-26T00:36:23;4.68;;;2.97;;
63965;SDS011;50151;52.030;5.350;2024-02-26T00:38:50;7.45;;;3.33;;
63965;SDS011;50151;52.030;5.350;2024-02-26T00:41:17;4.70;;;3.55;;
63965;SDS011;50151;52.030;5.350;2024-02-26T00:43:45;5.53;;;3.15;;
63965;SDS011;50151;52.030;5.350;2024-02-26T00:46:11;8.77;;;3.90;;
63965;SDS011;50151;52.030;5.350;2024-02-26T00:48:38;4.70;;;2.67;;
63965;SDS011;50151;52.030;5.350;2024-02-26T00:51:05;4.53;;;3.10;;
63965;SDS011;50151;52.030;5.350;2024-02-26T00:53:32;4.25;;;3.17;;
63965;SDS011;50151;52.030;5.350;2024-02-26T00:55:59;6.15;;;3.40;;
63965;SDS011;50151;52.030;5.350;2024-02-26T00:58:26;4.28;;;3.05;;
63965;SDS011;50151;52.030;5.350;2024-02-26T01:00:53;5.97;;;3.40;;
63965;SDS011;50151;52.030;5.350;2024-02-26T01:03:20;5.75;;;3.25;;
63965;SDS011;50151;52.030;5.350;2024-02-26T01:05:46;3.10;;;2.80;;
63965;SDS011;50151;52.030;5.350;2024-02-26T01:08:13;6.00;;;2.90;;
63965;SDS011;50151;52.030;5.350;2024-02-26T01:10:40;6.75;;;3.35;;
63965;SDS011;50151;52.030;5.350;2024-02-26T01:13:07;5.05;;;3.33;;
63965;SDS011;50151;52.030;5.350;2024-02-26T01:15:34;4.50;;;2.78;;
63965;SDS011;50151;52.030;5.350;2024-02-26T01:18:00;4.55;;;3.22;;
63965;SDS011;50151;52.030;5.350;2024-02-26T01:20:27;4.45;;;3.30;;
63965;SDS011;50151;52.030;5.350;2024-02-26T01:22:54;5.68;;;3.33;;
63965;SDS011;50151;52.030;5.350;2024-02-26T01:25:20;4.07;;;3.10;;
63965;SDS011;50151;52.030;5.350;2024-02-26T01:27:47;6.20;;;3.45;;
63965;SDS011;50151;52.030;5.350;2024-02-26T01:30:14;3.70;;;3.25;;
63965;SDS011;50151;52.030;5.350;2024-02-26T01:32:43;4.00;;;3.28;;
63965;SDS011;50151;52.030;5.350;2024-02-26T01:35:10;9.90;;;3.70;;
63965;SDS011;50151;52.030;5.350;2024-02-26T01:37:38;4.35;;;3.10;;
63965;SDS011;50151;52.030;5.350;2024-02-26T01:40:05;4.95;;;3.38;;
63965;SDS011;50151;52.030;5.350;2024-02-26T01:42:33;4.65;;;3.58;;
63965;SDS011;50151;52.030;5.350;2024-02-26T01:45:00;4.35;;;3.35;;
63965;SDS011;50151;52.030;5.350;2024-02-26T01:47:27;5.68;;;3.20;;
63965;SDS011;50151;52.030;5.350;2024-02-26T01:49:54;5.25;;;3.53;;
63965;SDS011;50151;52.030;5.350;2024-02-26T01:52:21;3.97;;;3.30;;
63965;SDS011;50151;52.030;5.350;2024-02-26T01:54:48;4.95;;;3.58;;
63965;SDS011;50151;52.030;5.350;2024-02-26T01:57:15;4.32;;;3.58;;
63965;SDS011;50151;52.030;5.350;2024-02-26T01:59:43;4.50;;;3.42;;
63965;SDS011;50151;52.030;5.350;2024-02-26T02:02:09;6.97;;;3.53;;
63965;SDS011;50151;52.030;5.350;2024-02-26T02:04:38;2.88;;;2.20;;
63965;SDS011;50151;52.030;5.350;2024-02-26T02:07:05;4.65;;;3.40;;
63965;SDS011;50151;52.030;5.350;2024-02-26T02:09:32;4.22;;;3.75;;
63965;SDS011;50151;52.030;5.350;2024-02-26T02:11:59;4.32;;;3.33;;
63965;SDS011;50151;52.030;5.350;2024-02-26T02:14:27;6.82;;;3.88;;
63965;SDS011;50151;52.030;5.350;2024-02-26T02:16:54;5.63;;;3.60;;
63965;SDS011;50151;52.030;5.350;2024-02-26T02:19:21;5.25;;;3.75;;
63965;SDS011;50151;52.030;5.350;2024-02-26T02:21:47;4.47;;;3.78;;
63965;SDS011;50151;52.030;5.350;2024-02-26T02:24:14;4.45;;;3.72;;
63965;SDS011;50151;52.030;5.350;2024-02-26T02:26:41;4.82;;;3.80;;
63965;SDS011;50151;52.030;5.350;2024-02-26T02:29:08;5.55;;;3.55;;
63965;SDS011;50151;52.030;5.350;2024-02-26T02:31:35;6.40;;;3.88;;
63965;SDS011;50151;52.030;5.350;2024-02-26T02:34:02;5.45;;;3.83;;
63965;SDS011;50151;52.030;5.350;2024-02-26T02:36:29;4.95;;;3.47;;
63965;SDS011;50151;52.030;5.350;2024-02-26T02:38:56;5.05;;;4.07;;
63965;SDS011;50151;52.030;5.350;2024-02-26T02:41:23;5.03;;;3.78;;
63965;SDS011;50151;52.030;5.350;2024-02-26T02:43:50;6.82;;;4.03;;
63965;SDS011;50151;52.030;5.350;2024-02-26T02:46:17;4.88;;;3.83;;
63965;SDS011;50151;52.030;5.350;2024-02-26T02:48:44;5.65;;;3.97;;
63965;SDS011;50151;52.030;5.350;2024-02-26T02:51:11;5.78;;;4.60;;
63965;SDS011;50151;52.030;5.350;2024-02-26T02:53:38;6.75;;;3.95;;
63965;SDS011;50151;52.030;5.350;2024-02-26T02:56:05;7.53;;;4.50;;
63965;SDS011;50151;52.030;5.350;2024-02-26T02:58:32;6.85;;;3.70;;
63965;SDS011;50151;52.030;5.350;2024-02-26T03:00:59;5.65;;;3.65;;
63965;SDS011;50151;52.030;5.350;2024-02-26T03:03:27;6.43;;;4.35;;
63965;SDS011;50151;52.030;5.350;2024-02-26T03:05:55;5.72;;;4.43;;
63965;SDS011;50151;52.030;5.350;2024-02-26T03:08:22;5.80;;;4.50;;
63965;SDS011;50151;52.030;5.350;2024-02-26T03:10:49;6.97;;;4.93;;
63965;SDS011;50151;52.030;5.350;2024-02-26T03:13:17;5.82;;;4.53;;
63965;SDS011;50151;52.030;5.350;2024-02-26T03:15:43;5.30;;;4.30;;
63965;SDS011;50151;52.030;5.350;2024-02-26T03:18:10;7.38;;;4.15;;
63965;SDS011;50151;52.030;5.350;2024-02-26T03:20:37;6.63;;;4.25;;
63965;SDS011;50151;52.030;5.350;2024-02-26T03:23:04;5.53;;;4.50;;
63965;SDS011;50151;52.030;5.350;2024-02-26T03:25:30;4.15;;;2.92;;
63965;SDS011;50151;52.030;5.350;2024-02-26T03:27:57;5.90;;;4.55;;
63965;SDS011;50151;52.030;5.350;2024-02-26T03:30:24;6.20;;;4.93;;
63965;SDS011;50151;52.030;5.350;2024-02-26T03:32:51;6.32;;;4.55;;
63965;SDS011;50151;52.030;5.350;2024-02-26T03:35:17;6.57;;;4.70;;
63965;SDS011;50151;52.030;5.350;2024-02-26T03:37:45;7.85;;;4.22;;
63965;SDS011;50151;52.030;5.350;2024-02-26T03:40:12;5.13;;;4.18;;
63965;SDS011;50151;52.030;5.350;2024-02-26T03:42:40;5.50;;;4.05;;
63965;SDS011;50151;52.030;5.350;2024-02-26T03:45:07;5.97;;;3.78;;
63965;SDS011;50151;52.030;5.350;2024-02-26T03:47:37;6.53;;;4.57;;
63965;SDS011;50151;52.030;5.350;2024-02-26T03:50:06;7.43;;;4.35;;
63965;SDS011;50151;52.030;5.350;2024-02-26T03:52:33;5.53;;;4.40;;
63965;SDS011;50151;52.030;5.350;2024-02-26T03:55:00;7.72;;;4.60;;
63965;SDS011;50151;52.030;5.350;2024-02-26T03:57:27;7.00;;;4.90;;
63965;SDS011;50151;52.030;5.350;2024-02-26T03:59:54;5.50;;;4.55;;
63965;SDS011;50151;52.030;5.350;2024-02-26T04:02:21;6.18;;;4.28;;
63965;SDS011;50151;52.030;5.350;2024-02-26T04:04:49;6.22;;;4.38;;
63965;SDS011;50151;52.030;5.350;2024-02-26T04:07:16;6.25;;;4.78;;
63965;SDS011;50151;52.030;5.350;2024-02-26T04:09:43;5.50;;;4.28;;
63965;SDS011;50151;52.030;5.350;2024-02-26T04:12:10;6.65;;;4.75;;
63965;SDS011;50151;52.030;5.350;2024-02-26T04:14:37;7.75;;;5.65;;
63965;SDS011;50151;52.030;5.350;2024-02-26T04:17:04;8.70;;;4.55;;
63965;SDS011;50151;52.030;5.350;2024-02-26T04:19:31;6.95;;;5.20;;
63965;SDS011;50151;52.030;5.350;2024-02-26T04:21:59;7.68;;;5.05;;
63965;SDS011;50151;52.030;5.350;2024-02-26T04:24:26;5.93;;;4.88;;
63965;SDS011;50151;52.030;5.350;2024-02-26T04:26:52;6.68;;;5.53;;
63965;SDS011;50151;52.030;5.350;2024-02-26T04:29:19;7.13;;;3.83;;
63965;SDS011;50151;52.030;5.350;2024-02-26T04:31:46;7.43;;;6.00;;
63965;SDS011;50151;52.030;5.350;2024-02-26T04:34:14;7.53;;;4.93;;
63965;SDS011;50151;52.030;5.350;2024-02-26T04:36:40;7.97;;;5.40;;
63965;SDS011;50151;52.030;5.350;2024-02-26T04:39:08;7.25;;;5.40;;
63965;SDS011;50151;52.030;5.350;2024-02-26T04:41:36;8.35;;;5.60;;
63965;SDS011;50151;52.030;5.350;2024-02-26T04:44:03;6.07;;;4.72;;
63965;SDS011;50151;52.030;5.350;2024-02-26T04:46:30;6.85;;;4.60;;
63965;SDS011;50151;52.030;5.350;2024-02-26T04:48:56;5.80;;;4.63;;
63965;SDS011;50151;52.030;5.350;2024-02-26T04:51:24;6.68;;;5.32;;
63965;SDS011;50151;52.030;5.350;2024-02-26T04:53:50;6.85;;;5.60;;
63965;SDS011;50151;52.030;5.350;2024-02-26T04:56:22;6.95;;;5.07;;
63965;SDS011;50151;52.030;5.350;2024-02-26T04:58:49;7.28;;;5.05;;
63965;SDS011;50151;52.030;5.350;2024-02-26T05:01:16;7.22;;;5.05;;
63965;SDS011;50151;52.030;5.350;2024-02-26T05:03:43;7.13;;;5.28;;
63965;SDS011;50151;52.030;5.350;2024-02-26T05:06:10;8.20;;;5.30;;
63965;SDS011;50151;52.030;5.350;2024-02-26T05:08:37;8.18;;;5.43;;
63965;SDS011;50151;52.030;5.350;2024-02-26T05:11:04;9.50;;;5.45;;
63965;SDS011;50151;52.030;5.350;2024-02-26T05:13:35;6.55;;;5.20;;
63965;SDS011;50151;52.030;5.350;2024-02-26T05:16:01;6.97;;;5.05;;
63965;SDS011;50151;52.030;5.350;2024-02-26T05:18:28;5.43;;;4.05;;
63965;SDS011;50151;52.030;5.350;2024-02-26T05:20:55;6.28;;;4.72;;
63965;SDS011;50151;52.030;5.350;2024-02-26T05:23:22;7.88;;;5.05;;
63965;SDS011;50151;52.030;5.350;2024-02-26T05:25:49;7.68;;;5.30;;
63965;SDS011;50151;52.030;5.350;2024-02-26T05:28:16;9.35;;;4.85;;
63965;SDS011;50151;52.030;5.350;2024-02-26T05:30:43;7.57;;;5.53;;
63965;SDS011;50151;52.030;5.350;2024-02-26T05:33:10;6.20;;;5.00;;
63965;SDS011;50151;52.030;5.350;2024-02-26T05:35:40;6.35;;;4.90;;
63965;SDS011;50151;52.030;5.350;2024-02-26T05:38:07;7.57;;;5.20;;
63965;SDS011;50151;52.030;5.350;2024-02-26T05:40:33;7.43;;;4.47;;
63965;SDS011;50151;52.030;5.350;2024-02-26T05:43:00;6.72;;;4.68;;
63965;SDS011;50151;52.030;5.350;2024-02-26T05:45:27;5.57;;;4.32;;
63965;SDS011;50151;52.030;5.350;2024-02-26T05:47:54;6.95;;;4.78;;
63965;SDS011;50151;52.030;5.350;2024-02-26T05:50:21;6.80;;;4.57;;
63965;SDS011;50151;52.030;5.350;2024-02-26T05:52:47;7.53;;;5.35;;
63965;SDS011;50151;52.030;5.350;2024-02-26T05:55:14;5.88;;;3.47;;
63965;SDS011;50151;52.030;5.350;2024-02-26T05:57:45;11.23;;;5.40;;
63965;SDS011;50151;52.030;5.350;2024-02-26T06:00:12;7.90;;;6.00;;
63965;SDS011;50151;52.030;5.350;2024-02-26T06:02:41;9.32;;;4.82;;
63965;SDS011;50151;52.030;5.350;2024-02-26T06:05:08;10.18;;;4.43;;
63965;SDS011;50151;52.030;5.350;2024-02-26T06:07:35;4.22;;;3.45;;
63965;SDS011;50151;52.030;5.350;2024-02-26T06:10:02;7.15;;;5.45;;
63965;SDS011;50151;52.030;5.350;2024-02-26T06:12:31;6.75;;;5.28;;
63965;SDS011;50151;52.030;5.350;2024-02-26T06:14:58;5.55;;;3.65;;
63965;SDS011;50151;52.030;5.350;2024-02-26T06:17:28;7.53;;;5.53;;
63965;SDS011;50151;52.030;5.350;2024-02-26T06:19:55;8.38;;;5.18;;
63965;SDS011;50151;52.030;5.350;2024-02-26T06:22:24;7.00;;;5.07;;
63965;SDS011;50151;52.030;5.350;2024-02-26T06:24:50;9.57;;;5.75;;
63965;SDS011;50151;52.030;5.350;2024-02-26T06:27:17;7.53;;;5.68;;
63965;SDS011;50151;52.030;5.350;2024-02-26T06:29:44;10.05;;;6.25;;
63965;SDS011;50151;52.030;5.350;2024-02-26T06:32:11;8.90;;;6.10;;
63965;SDS011;50151;52.030;5.350;2024-02-26T06:34:38;7.80;;;5.88;;
63965;SDS011;50151;52.030;5.350;2024-02-26T06:37:08;10.35;;;7.07;;
63965;SDS011;50151;52.030;5.350;2024-02-26T06:39:34;9.63;;;6.18;;
63965;SDS011;50151;52.030;5.350;2024-02-26T06:42:01;7.70;;;5.93;;
63965;SDS011;50151;52.030;5.350;2024-02-26T06:44:28;9.85;;;6.43;;
63965;SDS011;50151;52.030;5.350;2024-02-26T06:46:58;10.07;;;6.20;;
63965;SDS011;50151;52.030;5.350;2024-02-26T06:49:26;8.18;;;4.60;;
63965;SDS011;50151;52.030;5.350;2024-02-26T06:51:54;10.00;;;6.07;;
63965;SDS011;50151;52.030;5.350;2024-02-26T06:54:21;11.05;;;6.88;;
63965;SDS011;50151;52.030;5.350;2024-02-26T06:56:48;9.27;;;6.13;;
63965;SDS011;50151;52.030;5.350;2024-02-26T06:59:15;13.68;;;6.60;;
63965;SDS011;50151;52.030;5.350;2024-02-26T07:01:41;9.63;;;6.10;;
63965;SDS011;50151;52.030;5.350;2024-02-26T07:04:08;10.32;;;6.22;;
63965;SDS011;50151;52.030;5.350;2024-02-26T07:06:37;10.15;;;7.00;;
63965;SDS011;50151;52.030;5.350;2024-02-26T07:09:04;12.18;;;7.05;;
63965;SDS011;50151;52.030;5.350;2024-02-26T07:11:31;9.60;;;6.72;;
63965;SDS011;50151;52.030;5.350;2024-02-26T07:13:58;9.52;;;6.10;;
63965;SDS011;50151;52.030;5.350;2024-02-26T07:16:25;11.05;;;7.30;;
63965;SDS011;50151;52.030;5.350;2024-02-26T07:18:52;13.50;;;8.30;;
63965;SDS011;50151;52.030;5.350;2024-02-26T07:21:19;10.68;;;7.10;;
63965;SDS011;50151;52.030;5.350;2024-02-26T07:23:49;12.23;;;7.32;;
63965;SDS011;50151;52.030;5.350;2024-02-26T07:26:16;13.85;;;7.35;;
63965;SDS011;50151;52.030;5.350;2024-02-26T07:28:45;11.98;;;7.18;;
63965;SDS011;50151;52.030;5.350;2024-02-26T07:31:12;12.93;;;8.07;;
63965;SDS011;50151;52.030;5.350;2024-02-26T07:33:39;13.70;;;7.80;;
63965;SDS011;50151;52.030;5.350;2024-02-26T07:36:06;12.02;;;7.65;;
63965;SDS011;50151;52.030;5.350;2024-02-26T07:38:33;14.60;;;8.55;;
63965;SDS011;50151;52.030;5.350;2024-02-26T07:41:09;12.82;;;7.60;;
63965;SDS011;50151;52.030;5.350;2024-02-26T07:43:36;13.00;;;8.50;;
63965;SDS011;50151;52.030;5.350;2024-02-26T07:46:02;13.57;;;7.32;;
63965;SDS011;50151;52.030;5.350;2024-02-26T07:48:29;11.43;;;7.25;;
63965;SDS011;50151;52.030;5.350;2024-02-26T07:50:57;11.88;;;7.13;;
63965;SDS011;50151;52.030;5.350;2024-02-26T07:53:25;14.65;;;9.45;;
63965;SDS011;50151;52.030;5.350;2024-02-26T07:55:52;14.70;;;8.00;;
63965;SDS011;50151;52.030;5.350;2024-02-26T07:58:20;16.50;;;8.70;;
63965;SDS011;50151;52.030;5.350;2024-02-26T08:01:06;15.20;;;9.40;;
63965;SDS011;50151;52.030;5.350;2024-02-26T08:03:34;15.07;;;8.55;;
63965;SDS011;50151;52.030;5.350;2024-02-26T08:06:01;14.05;;;9.07;;
63965;SDS011;50151;52.030;5.350;2024-02-26T08:08:28;15.48;;;9.80;;
63965;SDS011;50151;52.030;5.350;2024-02-26T08:10:54;14.68;;;8.25;;
63965;SDS011;50151;52.030;5.350;2024-02-26T08:13:21;15.60;;;9.52;;
63965;SDS011;50151;52.030;5.350;2024-02-26T08:15:48;17.00;;;10.02;;
63965;SDS011;50151;52.030;5.350;2024-02-26T08:18:15;12.15;;;7.60;;
63965;SDS011;50151;52.030;5.350;2024-02-26T08:20:42;25.73;;;9.20;;
63965;SDS011;50151;52.030;5.350;2024-02-26T08:23:10;15.18;;;9.10;;
63965;SDS011;50151;52.030;5.350;2024-02-26T08:25:37;21.50;;;10.63;;
63965;SDS011;50151;52.030;5.350;2024-02-26T08:28:03;18.60;;;10.18;;
63965;SDS011;50151;52.030;5.350;2024-02-26T08:30:31;16.48;;;9.80;;
63965;SDS011;50151;52.030;5.350;2024-02-26T08:32:58;17.25;;;9.88;;
63965;SDS011;50151;52.030;5.350;2024-02-26T08:35:25;17.67;;;11.00;;
63965;SDS011;50151;52.030;5.350;2024-02-26T08:37:52;19.88;;;10.80;;
63965;SDS011;50151;52.030;5.350;2024-02-26T08:40:18;17.80;;;10.45;;
63965;SDS011;50151;52.030;5.350;2024-02-26T08:42:45;14.77;;;9.10;;
63965;SDS011;50151;52.030;5.350;2024-02-26T08:45:12;16.80;;;9.60;;
63965;SDS011;50151;52.030;5.350;2024-02-26T08:47:39;16.13;;;9.65;;
63965;SDS011;50151;52.030;5.350;2024-02-26T08:50:07;13.70;;;8.68;;
63965;SDS011;50151;52.030;5.350;2024-02-26T08:52:35;13.68;;;8.80;;
63965;SDS011;50151;52.030;5.350;2024-02-26T08:55:03;14.07;;;8.77;;
63965;SDS011;50151;52.030;5.350;2024-02-26T08:57:31;14.35;;;9.00;;
63965;SDS011;50151;52.030;5.350;2024-02-26T09:00:07;12.70;;;7.65;;
63965;SDS011;50151;52.030;5.350;2024-02-26T09:02:35;12.23;;;8.35;;
63965;SDS011;50151;52.030;5.350;2024-02-26T09:05:05;13.52;;;7.88;;
63965;SDS011;50151;52.030;5.350;2024-02-26T09:07:32;17.08;;;6.72;;
63965;SDS011;50151;52.030;5.350;2024-02-26T09:10:00;12.02;;;7.55;;
63965;SDS011;50151;52.030;5.350;2024-02-26T09:12:26;12.02;;;6.65;;
63965;SDS011;50151;52.030;5.350;2024-02-26T09:14:53;9.02;;;5.85;;
63965;SDS011;50151;52.030;5.350;2024-02-26T09:17:22;8.90;;;6.45;;
63965;SDS011;50151;52.030;5.350;2024-02-26T09:19:49;11.23;;;7.20;;
63965;SDS011;50151;52.030;5.350;2024-02-26T09:22:16;8.02;;;5.80;;
63965;SDS011;50151;52.030;5.350;2024-02-26T09:24:44;10.20;;;6.70;;
63965;SDS011;50151;52.030;5.350;2024-02-26T09:27:11;9.43;;;5.88;;
63965;SDS011;50151;52.030;5.350;2024-02-26T09:29:38;8.70;;;5.70;;
63965;SDS011;50151;52.030;5.350;2024-02-26T09:32:04;8.60;;;5.40;;
63965;SDS011;50151;52.030;5.350;2024-02-26T09:34:31;8.70;;;6.00;;
63965;SDS011;50151;52.030;5.350;2024-02-26T09:37:00;8.18;;;5.38;;
63965;SDS011;50151;52.030;5.350;2024-02-26T09:39:40;8.68;;;5.70;;
63965;SDS011;50151;52.030;5.350;2024-02-26T09:42:07;9.35;;;5.40;;
63965;SDS011;50151;52.030;5.350;2024-02-26T09:44:38;8.52;;;5.28;;
63965;SDS011;50151;52.030;5.350;2024-02-26T09:47:08;9.98;;;5.25;;
63965;SDS011;50151;52.030;5.350;2024-02-26T09:49:38;7.38;;;5.18;;
63965;SDS011;50151;52.030;5.350;2024-02-26T09:52:05;8.93;;;5.65;;
63965;SDS011;50151;52.030;5.350;2024-02-26T09:54:34;8.07;;;6.18;;
63965;SDS011;50151;52.030;5.350;2024-02-26T09:57:02;6.60;;;4.38;;
63965;SDS011;50151;52.030;5.350;2024-02-26T09:59:34;7.65;;;5.15;;
63965;SDS011;50151;52.030;5.350;2024-02-26T10:02:13;4.78;;;4.20;;
63965;SDS011;50151;52.030;5.350;2024-02-26T10:04:41;6.30;;;4.85;;
63965;SDS011;50151;52.030;5.350;2024-02-26T10:07:14;7.57;;;5.03;;
63965;SDS011;50151;52.030;5.350;2024-02-26T10:09:41;7.53;;;4.78;;
63965;SDS011;50151;52.030;5.350;2024-02-26T10:12:09;6.93;;;4.68;;
63965;SDS011;50151;52.030;5.350;2024-02-26T10:14:38;7.05;;;4.97;;
63965;SDS011;50151;52.030;5.350;2024-02-26T10:17:07;6.57;;;4.75;;
63965;SDS011;50151;52.030;5.350;2024-02-26T10:19:37;7.05;;;4.63;;
63965;SDS011;50151;52.030;5.350;2024-02-26T10:22:05;9.88;;;5.15;;
63965;SDS011;50151;52.030;5.350;2024-02-26T10:24:36;9.38;;;5.22;;
63965;SDS011;50151;52.030;5.350;2024-02-26T10:27:04;7.93;;;4.43;;
63965;SDS011;50151;52.030;5.350;2024-02-26T10:29:38;7.75;;;3.88;;
63965;SDS011;50151;52.030;5.350;2024-02-26T10:32:06;7.57;;;4.70;;
63965;SDS011;50151;52.030;5.350;2024-02-26T10:34:33;6.18;;;3.78;;
63965;SDS011;50151;52.030;5.350;2024-02-26T10:37:05;6.78;;;4.55;;
63965;SDS011;50151;52.030;5.350;2024-02-26T10:39:31;8.07;;;4.65;;
63965;SDS011;50151;52.030;5.350;2024-02-26T10:41:59;5.82;;;4.55;;
63965;SDS011;50151;52.030;5.350;2024-02-26T10:44:31;8.15;;;4.68;;
63965;SDS011;50151;52.030;5.350;2024-02-26T10:46:58;6.32;;;4.30;;
63965;SDS011;50151;52.030;5.350;2024-02-26T10:49:25;6.53;;;4.75;;
63965;SDS011;50151;52.030;5.350;2024-02-26T10:51:55;9.75;;;4.45;;
63965;SDS011;50151;52.030;5.350;2024-02-26T10:54:26;7.35;;;4.75;;
63965;SDS011;50151;52.030;5.350;2024-02-26T10:56:56;9.35;;;4.25;;
63965;SDS011;50151;52.030;5.350;2024-02-26T10:59:27;10.32;;;4.75;;
63965;SDS011;50151;52.030;5.350;2024-02-26T11:01:56;7.22;;;4.93;;
63965;SDS011;50151;52.030;5.350;2024-02-26T11:04:24;7.03;;;4.68;;
63965;SDS011;50151;52.030;5.350;2024-02-26T11:06:54;6.30;;;4.50;;
63965;SDS011;50151;52.030;5.350;2024-02-26T11:09:27;8.23;;;4.70;;
63965;SDS011;50151;52.030;5.350;2024-02-26T11:11:55;6.40;;;4.30;;
63965;SDS011;50151;52.030;5.350;2024-02-26T11:14:23;8.15;;;4.65;;
63965;SDS011;50151;52.030;5.350;2024-02-26T11:16:52;7.13;;;4.85;;
63965;SDS011;50151;52.030;5.350;2024-02-26T11:19:21;7.60;;;5.30;;
63965;SDS011;50151;52.030;5.350;2024-02-26T11:21:50;9.45;;;4.10;;
63965;SDS011;50151;52.030;5.350;2024-02-26T11:24:16;6.68;;;4.55;;
63965;SDS011;50151;52.030;5.350;2024-02-26T11:26:46;6.95;;;4.43;;
63965;SDS011;50151;52.030;5.350;2024-02-26T11:29:46;5.82;;;4.43;;
63965;SDS011;50151;52.030;5.350;2024-02-26T11:32:15;6.95;;;4.78;;
63965;SDS011;50151;52.030;5.350;2024-02-26T11:34:42;6.18;;;3.97;;
63965;SDS011;50151;52.030;5.350;2024-02-26T11:37:16;6.60;;;4.82;;
63965;SDS011;50151;52.030;5.350;2024-02-26T11:39:45;7.20;;;4.70;;
63965;SDS011;50151;52.030;5.350;2024-02-26T11:42:15;5.88;;;4.53;;
63965;SDS011;50151;52.030;5.350;2024-02-26T11:44:43;6.53;;;4.40;;
63965;SDS011;50151;52.030;5.350;2024-02-26T11:47:13;5.82;;;3.97;;
63965;SDS011;50151;52.030;5.350;2024-02-26T11:49:44;6.57;;;4.47;;
63965;SDS011;50151;52.030;5.350;2024-02-26T11:52:12;7.55;;;4.57;;
63965;SDS011;50151;52.030;5.350;2024-02-26T11:54:44;7.10;;;4.13;;
63965;SDS011;50151;52.030;5.350;2024-02-26T11:57:21;5.50;;;3.88;;
63965;SDS011;50151;52.030;5.350;2024-02-26T11:59:55;6.07;;;4.45;;
63965;SDS011;50151;52.030;5.350;2024-02-26T12:07:49;6.10;;;4.18;;
63965;SDS011;50151;52.030;5.350;2024-02-26T12:10:32;5.88;;;4.38;;
63965;SDS011;50151;52.030;5.350;2024-02-26T12:13:10;5.93;;;3.63;;
63965;SDS011;50151;52.030;5.350;2024-02-26T12:15:45;7.03;;;3.92;;
63965;SDS011;50151;52.030;5.350;2024-02-26T12:18:23;6.97;;;4.57;;
63965;SDS011;50151;52.030;5.350;2024-02-26T12:21:11;6.10;;;4.53;;
63965;SDS011;50151;52.030;5.350;2024-02-26T12:23:39;7.13;;;4.93;;
63965;SDS011;50151;52.030;5.350;2024-02-26T12:26:06;5.93;;;4.32;;
63965;SDS011;50151;52.030;5.350;2024-02-26T12:28:36;6.97;;;4.82;;
63965;SDS011;50151;52.030;5.350;2024-02-26T12:31:03;6.82;;;4.60;;
63965;SDS011;50151;52.030;5.350;2024-02-26T12:33:30;6.32;;;4.35;;
63965;SDS011;50151;52.030;5.350;2024-02-26T12:35:58;5.18;;;4.15;;
63965;SDS011;50151;52.030;5.350;2024-02-26T12:38:25;9.35;;;5.10;;
63965;SDS011;50151;52.030;5.350;2024-02-26T12:40:53;5.57;;;4.30;;
63965;SDS011;50151;52.030;5.350;2024-02-26T12:43:20;6.47;;;4.60;;
63965;SDS011;50151;52.030;5.350;2024-02-26T12:45:47;4.93;;;3.70;;
63965;SDS011;50151;52.030;5.350;2024-02-26T12:48:14;5.85;;;4.03;;
63965;SDS011;50151;52.030;5.350;2024-02-26T12:50:44;5.55;;;4.45;;
63965;SDS011;50151;52.030;5.350;2024-02-26T12:53:14;6.18;;;4.50;;
63965;SDS011;50151;52.030;5.350;2024-02-26T12:55:41;5.07;;;4.05;;
63965;SDS011;50151;52.030;5.350;2024-02-26T12:58:08;6.28;;;4.00;;
63965;SDS011;50151;52.030;5.350;2024-02-26T13:00:36;5.50;;;3.88;;
63965;SDS011;50151;52.030;5.350;2024-02-26T13:03:03;6.32;;;4.07;;
63965;SDS011;50151;52.030;5.350;2024-02-26T13:05:30;4.35;;;3.17;;
63965;SDS011;50151;52.030;5.350;2024-02-26T13:07:57;6.10;;;4.20;;
63965;SDS011;50151;52.030;5.350;2024-02-26T13:10:24;7.50;;;4.10;;
63965;SDS011;50151;52.030;5.350;2024-02-26T13:12:51;6.45;;;4.32;;
63965;SDS011;50151;52.030;5.350;2024-02-26T13:15:20;5.18;;;3.80;;
63965;SDS011;50151;52.030;5.350;2024-02-26T13:17:48;6.15;;;4.20;;
63965;SDS011;50151;52.030;5.350;2024-02-26T13:20:29;6.82;;;4.10;;
63965;SDS011;50151;52.030;5.350;2024-02-26T13:23:01;5.53;;;4.07;;
63965;SDS011;50151;52.030;5.350;2024-02-26T13:25:32;5.60;;;3.83;;
63965;SDS011;50151;52.030;5.350;2024-02-26T13:30:40;5.78;;;4.22;;
63965;SDS011;50151;52.030;5.350;2024-02-26T13:33:10;5.10;;;3.70;;
63965;SDS011;50151;52.030;5.350;2024-02-26T13:35:39;7.55;;;4.88;;
63965;SDS011;50151;52.030;5.350;2024-02-26T13:38:06;5.45;;;4.35;;
63965;SDS011;50151;52.030;5.350;2024-02-26T13:40:33;5.30;;;4.15;;
63965;SDS011;50151;52.030;5.350;2024-02-26T13:43:01;6.95;;;4.70;;
63965;SDS011;50151;52.030;5.350;2024-02-26T13:45:28;6.93;;;4.75;;
63965;SDS011;50151;52.030;5.350;2024-02-26T13:48:02;6.00;;;4.70;;
63965;SDS011;50151;52.030;5.350;2024-02-26T13:50:30;6.20;;;4.60;;
63965;SDS011;50151;52.030;5.350;2024-02-26T13:52:57;6.10;;;3.65;;
63965;SDS011;50151;52.030;5.350;2024-02-26T13:55:27;5.55;;;4.32;;
63965;SDS011;50151;52.030;5.350;2024-02-26T13:57:56;5.90;;;3.97;;
63965;SDS011;50151;52.030;5.350;2024-02-26T14:00:24;7.43;;;4.05;;
63965;SDS011;50151;52.030;5.350;2024-02-26T14:02:51;6.82;;;4.75;;
63965;SDS011;50151;52.030;5.350;2024-02-26T14:05:18;5.97;;;3.92;;
63965;SDS011;50151;52.030;5.350;2024-02-26T14:07:45;8.43;;;5.10;;
63965;SDS011;50151;52.030;5.350;2024-02-26T14:10:17;6.50;;;4.55;;
63965;SDS011;50151;52.030;5.350;2024-02-26T14:12:44;7.05;;;4.15;;
63965;SDS011;50151;52.030;5.350;2024-02-26T14:15:10;6.25;;;4.03;;
63965;SDS011;50151;52.030;5.350;2024-02-26T14:17:37;6.75;;;4.07;;
63965;SDS011;50151;52.030;5.350;2024-02-26T14:20:04;6.80;;;4.25;;
63965;SDS011;50151;52.030;5.350;2024-02-26T14:22:31;7.63;;;4.22;;
63965;SDS011;50151;52.030;5.350;2024-02-26T14:24:58;6.13;;;3.55;;
63965;SDS011;50151;52.030;5.350;2024-02-26T14:27:25;5.07;;;2.88;;
63965;SDS011;50151;52.030;5.350;2024-02-26T14:29:52;5.40;;;3.97;;
63965;SDS011;50151;52.030;5.350;2024-02-26T14:32:21;5.10;;;3.70;;
63965;SDS011;50151;52.030;5.350;2024-02-26T14:34:48;4.88;;;3.65;;
63965;SDS011;50151;52.030;5.350;2024-02-26T14:37:15;6.10;;;4.03;;
63965;SDS011;50151;52.030;5.350;2024-02-26T14:39:42;4.65;;;3.60;;
63965;SDS011;50151;52.030;5.350;2024-02-26T14:42:09;5.70;;;3.60;;
63965;SDS011;50151;52.030;5.350;2024-02-26T14:44:36;4.60;;;3.45;;
63965;SDS011;50151;52.030;5.350;2024-02-26T14:47:03;4.53;;;2.83;;
63965;SDS011;50151;52.030;5.350;2024-02-26T14:49:31;6.30;;;3.63;;
63965;SDS011;50151;52.030;5.350;2024-02-26T14:51:58;4.97;;;3.80;;
63965;SDS011;50151;52.030;5.350;2024-02-26T14:54:25;5.13;;;3.35;;
63965;SDS011;50151;52.030;5.350;2024-02-26T14:56:52;4.13;;;2.50;;
63965;SDS011;50151;52.030;5.350;2024-02-26T14:59:18;3.05;;;2.42;;